createdAt,value
2023-03-26T00:00:47.752Z,66.30
2023-03-26T00:03:21.049Z,66.40
2023-03-26T00:05:52.824Z,66.60
2023-03-26T00:08:22.382Z,66.30
2023-03-26T00:10:54.151Z,66.50
2023-03-26T00:13:25.094Z,66.80
2023-03-26T00:15:55.919Z,66.60
2023-03-26T00:18:30.896Z,66.40
2023-03-26T00:21:00.246Z,66.40
2023-03-26T00:23:30.044Z,66.40
2023-03-26T00:25:58.711Z,66.50
2023-03-26T00:28:29.779Z,66.30
2023-03-26T00:31:08.583Z,66.40
2023-03-26T00:33:44.659Z,66.20
2023-03-26T00:36:16.858Z,66.40
2023-03-26T00:38:48.061Z,65.80
2023-03-26T00:41:23.319Z,65.80
2023-03-26T00:43:57.313Z,65.50
2023-03-26T00:46:28.996Z,65.50
2023-03-26T00:49:06.573Z,65.80
2023-03-26T00:51:35.185Z,65.70
2023-03-26T00:54:03.728Z,65.50
2023-03-26T00:56:32.325Z,65.40
2023-03-26T00:59:07.641Z,65.10
2023-03-26T01:01:41.394Z,65.40
2023-03-26T01:04:29.149Z,65.30
2023-03-26T01:07:04.057Z,64.90
2023-03-26T01:09:42.941Z,64.90
2023-03-26T01:12:19.477Z,65.10
2023-03-26T01:15:03.774Z,65.30
2023-03-26T01:17:35.936Z,65.10
2023-03-26T01:20:16.813Z,65.60
2023-03-26T01:22:53.210Z,65.40
2023-03-26T01:25:37.622Z,65.50
2023-03-26T01:28:15.523Z,65.70
2023-03-26T01:31:01.688Z,65.90
2023-03-26T01:33:38.586Z,66.30
2023-03-26T01:36:12.185Z,66.50
2023-03-26T01:38:46.792Z,66.40
2023-03-26T01:41:22.383Z,66.60
2023-03-26T01:43:58.591Z,66.70
2023-03-26T01:46:28.585Z,66.80
2023-03-26T01:48:57.152Z,66.80
2023-03-26T01:51:34.013Z,66.90
2023-03-26T01:54:05.249Z,66.90
2023-03-26T01:56:41.664Z,66.50
2023-03-26T01:59:20.881Z,66.60
2023-03-26T02:01:57.452Z,66.40
2023-03-26T02:04:30.111Z,66.70
2023-03-26T02:07:05.932Z,66.40
2023-03-26T02:09:42.864Z,66.30
2023-03-26T02:12:13.691Z,67.20
2023-03-26T02:14:43.122Z,66.40
2023-03-26T02:17:11.842Z,66.50
2023-03-26T02:19:44.201Z,66.40
2023-03-26T02:22:15.713Z,66.50
2023-03-26T02:24:52.492Z,66.50
2023-03-26T02:27:22.567Z,66.80
2023-03-26T02:29:51.117Z,66.70
2023-03-26T02:32:22.785Z,66.90
2023-03-26T02:34:51.698Z,66.70
2023-03-26T02:37:20.864Z,66.70
2023-03-26T02:39:54.718Z,66.80
2023-03-26T02:42:35.867Z,66.90
2023-03-26T02:45:05.010Z,67.10
2023-03-26T02:47:52.295Z,66.90
2023-03-26T02:50:43.841Z,67.10
2023-03-26T02:53:41.555Z,67.20
2023-03-26T02:56:28.478Z,67.50
2023-03-26T02:59:16.939Z,67.40
2023-03-26T03:01:48.495Z,67.40
2023-03-26T03:04:19.653Z,67.80
2023-03-26T03:06:57.892Z,67.80
2023-03-26T03:09:27.421Z,68.00
2023-03-26T03:12:21.666Z,68.00
2023-03-26T03:14:54.866Z,68.10
2023-03-26T03:17:23.291Z,68.30
2023-03-26T03:19:52.002Z,68.00
2023-03-26T03:22:23.050Z,68.20
2023-03-26T03:24:52.265Z,68.20
2023-03-26T03:27:26.933Z,68.10
2023-03-26T03:30:09.504Z,68.30
2023-03-26T03:33:06.181Z,68.40
2023-03-26T03:35:43.044Z,68.20
2023-03-26T03:38:12.209Z,68.40
2023-03-26T03:40:55.840Z,68.80
2023-03-26T03:43:34.347Z,68.80
2023-03-26T03:46:15.109Z,68.80
2023-03-26T03:48:51.125Z,68.90
2023-03-26T03:51:35.113Z,68.90
2023-03-26T03:54:06.792Z,69.00
2023-03-26T03:56:49.156Z,69.70
2023-03-26T03:59:36.623Z,68.70
2023-03-26T04:02:09.847Z,68.80
2023-03-26T04:09:13.402Z,68.40
2023-03-26T04:11:41.923Z,68.60
2023-03-26T04:14:25.408Z,68.40
2023-03-26T04:16:58.991Z,68.40
2023-03-26T04:19:29.981Z,68.50
2023-03-26T04:22:05.453Z,68.60
2023-03-26T04:24:40.338Z,68.70
2023-03-26T04:27:33.207Z,68.80
2023-03-26T04:30:24.357Z,68.60
2023-03-26T04:33:04.498Z,68.70
2023-03-26T04:35:37.342Z,68.60
2023-03-26T04:38:08.441Z,68.80
2023-03-26T04:40:42.720Z,68.50
2023-03-26T04:43:16.116Z,68.70
2023-03-26T04:46:21.962Z,68.70
2023-03-26T04:49:04.314Z,68.70
2023-03-26T04:51:46.432Z,68.70
2023-03-26T04:54:42.899Z,68.60
2023-03-26T04:57:20.215Z,68.50
2023-03-26T05:00:06.760Z,68.30
2023-03-26T05:02:40.171Z,68.70
2023-03-26T05:05:18.459Z,68.60
2023-03-26T05:07:49.315Z,68.40
2023-03-26T05:10:20.814Z,68.20
2023-03-26T05:12:58.370Z,68.40
2023-03-26T05:15:35.572Z,68.40
2023-03-26T05:18:46.765Z,68.50
2023-03-26T05:21:18.222Z,68.40
2023-03-26T05:23:55.284Z,68.50
2023-03-26T05:26:37.693Z,68.60
2023-03-26T05:29:09.048Z,68.30
2023-03-26T05:31:45.271Z,68.40
2023-03-26T05:34:14.084Z,67.90
2023-03-26T05:36:44.135Z,67.80
2023-03-26T05:39:47.482Z,67.90
2023-03-26T05:42:34.128Z,68.00
2023-03-26T05:45:24.187Z,67.80
2023-03-26T05:47:54.862Z,68.00
2023-03-26T05:50:25.572Z,68.00
2023-03-26T05:53:00.560Z,67.90
2023-03-26T05:56:08.033Z,68.00
2023-03-26T05:58:56.586Z,67.70
2023-03-26T06:01:44.833Z,67.70
2023-03-26T06:04:35.429Z,67.50
2023-03-26T06:07:38.827Z,67.80
2023-03-26T06:10:24.029Z,68.00
2023-03-26T06:12:57.445Z,67.80
2023-03-26T06:15:35.398Z,68.20
2023-03-26T06:18:19.711Z,68.20
2023-03-26T06:21:22.924Z,68.50
2023-03-26T06:24:04.662Z,67.70
2023-03-26T06:27:05.858Z,67.80
2023-03-26T06:29:53.429Z,67.80
2023-03-26T06:32:34.767Z,67.60
2023-03-26T06:35:10.058Z,67.50
2023-03-26T06:37:46.115Z,67.40
2023-03-26T06:40:19.670Z,67.70
2023-03-26T06:43:34.093Z,67.70
2023-03-26T06:46:32.061Z,67.30
2023-03-26T06:49:39.321Z,67.30
2023-03-26T06:52:20.794Z,67.00
2023-03-26T06:55:29.459Z,67.00
2023-03-26T06:58:29.707Z,66.80
2023-03-26T07:01:19.438Z,66.70
2023-03-26T07:04:10.153Z,66.90
2023-03-26T07:07:00.760Z,67.00
2023-03-26T07:09:55.266Z,66.70
2023-03-26T07:12:57.962Z,66.20
2023-03-26T07:15:26.893Z,66.10
2023-03-26T07:18:00.515Z,66.20
2023-03-26T07:20:42.748Z,66.00
2023-03-26T07:23:21.554Z,65.90
2023-03-26T07:26:27.590Z,66.00
2023-03-26T07:29:27.281Z,65.40
2023-03-26T07:32:24.676Z,65.40
2023-03-26T07:35:30.111Z,65.10
2023-03-26T07:38:36.778Z,64.80
2023-03-26T07:41:34.718Z,64.70
2023-03-26T07:44:38.369Z,64.70
2023-03-26T07:47:35.540Z,64.30
2023-03-26T07:50:26.437Z,64.10
2023-03-26T07:53:12.123Z,64.20
2023-03-26T07:56:10.796Z,64.20
2023-03-26T07:59:11.888Z,64.20
2023-03-26T08:02:37.111Z,63.50
2023-03-26T08:05:28.159Z,63.40
2023-03-26T08:08:23.630Z,64.20
2023-03-26T08:11:22.854Z,63.10
2023-03-26T08:14:05.812Z,62.90
2023-03-26T08:16:53.905Z,62.70
2023-03-26T08:19:41.432Z,62.90
2023-03-26T08:22:15.587Z,62.70
2023-03-26T08:24:53.956Z,63.00
2023-03-26T08:27:28.220Z,62.70
2023-03-26T08:30:02.767Z,62.80
2023-03-26T08:32:31.868Z,62.90
2023-03-26T08:35:05.453Z,62.80
2023-03-26T08:37:36.781Z,63.10
2023-03-26T08:40:06.700Z,62.80
2023-03-26T08:43:10.611Z,62.50
2023-03-26T08:46:09.412Z,62.30
2023-03-26T08:49:01.836Z,61.90
2023-03-26T08:52:07.908Z,61.90
2023-03-26T08:55:15.930Z,62.10
2023-03-26T08:58:27.563Z,62.10
2023-03-26T09:01:23.988Z,62.00
2023-03-26T09:04:16.329Z,62.00
2023-03-26T09:07:19.576Z,61.80
2023-03-26T09:10:28.154Z,61.90
2023-03-26T09:13:41.033Z,61.50
2023-03-26T09:16:47.762Z,61.50
2023-03-26T09:19:51.891Z,61.50
2023-03-26T09:23:02.309Z,62.00
2023-03-26T09:26:15.488Z,61.00
2023-03-26T09:29:25.673Z,61.00
2023-03-26T09:32:32.231Z,60.90
2023-03-26T09:35:24.718Z,61.10
2023-03-26T09:38:12.815Z,61.20
2023-03-26T09:40:53.437Z,62.10
2023-03-26T09:43:51.448Z,61.10
2023-03-26T09:46:36.976Z,60.40
2023-03-26T09:49:32.885Z,60.50
2023-03-26T09:52:17.779Z,60.20
2023-03-26T09:55:23.956Z,59.60
2023-03-26T09:58:16.567Z,59.30
2023-03-26T10:00:52.653Z,59.30
2023-03-26T10:03:32.356Z,59.40
2023-03-26T10:06:15.833Z,59.10
2023-03-26T10:08:58.664Z,59.00
2023-03-26T10:11:42.788Z,58.50
2023-03-26T10:14:23.050Z,58.00
2023-03-26T10:17:06.964Z,57.90
2023-03-26T10:20:04.593Z,57.60
2023-03-26T10:22:47.512Z,57.30
2023-03-26T10:25:39.057Z,56.90
2023-03-26T10:28:33.444Z,56.80
2023-03-26T10:31:36.498Z,56.30
2023-03-26T10:34:29.445Z,55.90
2023-03-26T10:37:08.139Z,55.90
2023-03-26T10:39:56.458Z,55.60
2023-03-26T10:43:01.377Z,55.30
2023-03-26T10:59:59.790Z,54.50
2023-03-26T11:53:00.833Z,52.60
2023-03-26T11:57:07.254Z,52.80
2023-03-26T12:00:21.580Z,52.80
2023-03-26T12:29:13.011Z,52.30
2023-03-26T12:32:45.658Z,52.60
2023-03-26T12:36:25.426Z,52.10
2023-03-26T12:44:46.086Z,52.40
2023-03-26T12:47:58.041Z,52.20
2023-03-26T12:50:34.595Z,52.20
2023-03-26T13:03:05.893Z,51.50
2023-03-26T13:41:09.523Z,52.00
2023-03-26T13:48:15.675Z,51.60
2023-03-26T14:03:29.333Z,52.00
2023-03-26T14:10:21.196Z,51.50
2023-03-26T14:17:15.778Z,51.50
2023-03-26T14:33:04.324Z,52.50
2023-03-26T14:40:27.083Z,52.70
2023-03-26T14:59:47.640Z,55.60
2023-03-26T15:07:26.250Z,56.20
2023-03-26T15:11:18.905Z,56.30
2023-03-26T15:18:51.340Z,56.90
2023-03-26T15:22:34.650Z,56.90
2023-03-26T15:25:39.885Z,56.80
2023-03-26T15:29:03.442Z,57.00
2023-03-26T15:40:51.849Z,57.30
2023-03-26T15:53:13.614Z,58.20
2023-03-26T16:31:40.369Z,61.30
2023-03-26T16:34:41.575Z,61.70
2023-03-26T16:37:40.215Z,62.10
2023-03-26T16:45:15.232Z,62.30
2023-03-26T16:47:51.820Z,62.50
2023-03-26T16:51:31.899Z,62.70
2023-03-26T17:52:07.160Z,65.30
2023-03-26T17:54:51.380Z,65.60
2023-03-26T17:57:28.864Z,65.90
2023-03-26T18:00:13.926Z,65.80
2023-03-26T18:02:48.953Z,65.90
2023-03-26T18:05:18.462Z,65.70
2023-03-26T18:08:26.995Z,65.70
2023-03-26T18:11:29.544Z,65.70
2023-03-26T18:14:26.395Z,65.90
2023-03-26T18:17:04.266Z,65.90
2023-03-26T18:19:59.271Z,66.30
2023-03-26T18:22:42.213Z,66.20
2023-03-26T18:25:43.120Z,66.20
2023-03-26T18:28:50.428Z,66.00
2023-03-26T18:39:10.047Z,66.40
2023-03-26T18:42:22.564Z,66.90
2023-03-26T18:45:22.200Z,66.40
2023-03-26T18:47:58.803Z,66.60
2023-03-26T18:50:46.155Z,66.70
2023-03-26T18:53:35.077Z,67.20
2023-03-26T18:56:33.196Z,66.90
2023-03-26T18:59:42.051Z,67.20
2023-03-26T19:02:39.938Z,67.50
2023-03-26T19:05:30.095Z,67.40
2023-03-26T19:08:11.029Z,67.60
2023-03-26T19:10:44.027Z,67.80
2023-03-26T19:13:41.567Z,68.10
2023-03-26T19:17:18.219Z,68.00
2023-03-26T19:20:30.774Z,68.00
2023-03-26T19:23:43.715Z,68.00
2023-03-26T19:26:28.527Z,68.10
2023-03-26T19:29:30.821Z,68.40
2023-03-26T19:36:54.396Z,68.60
2023-03-26T19:39:36.931Z,68.40
2023-03-26T19:42:43.001Z,68.50
2023-03-26T19:45:36.252Z,68.80
2023-03-26T19:48:47.181Z,68.90
2023-03-26T19:51:31.882Z,69.00
2023-03-26T19:54:09.055Z,69.00
2023-03-26T19:56:44.889Z,69.00
2023-03-26T19:59:27.418Z,69.60
2023-03-26T20:02:02.420Z,69.10
2023-03-26T20:04:44.350Z,69.50
2023-03-26T20:07:35.652Z,69.30
2023-03-26T20:10:35.748Z,69.50
2023-03-26T20:13:31.868Z,69.50
2023-03-26T20:16:22.504Z,69.30
2023-03-26T20:19:07.158Z,69.50
2023-03-26T20:21:51.163Z,69.80
2023-03-26T20:24:35.822Z,69.70
2023-03-26T20:27:26.276Z,69.80
2023-03-26T20:30:14.101Z,69.80
2023-03-26T20:33:12.589Z,69.60
2023-03-26T20:35:51.146Z,69.90
2023-03-26T20:38:39.156Z,70.00
2023-03-26T20:41:24.130Z,70.00
2023-03-26T20:44:14.574Z,69.90
2023-03-26T20:46:54.259Z,70.00
2023-03-26T20:49:45.891Z,70.10
2023-03-26T20:52:43.251Z,70.00
2023-03-26T20:55:17.613Z,70.00
2023-03-26T20:57:47.369Z,69.70
2023-03-26T21:00:19.180Z,69.80
2023-03-26T21:02:49.781Z,69.80
2023-03-26T21:05:27.623Z,69.90
2023-03-26T21:07:59.988Z,70.10
2023-03-26T21:10:30.511Z,70.20
2023-03-26T21:13:07.394Z,70.10
2023-03-26T21:15:38.649Z,70.00
2023-03-26T21:18:09.464Z,70.00
2023-03-26T21:20:38.570Z,70.00
2023-03-26T21:23:14.313Z,70.00
2023-03-26T21:25:53.225Z,70.10
2023-03-26T21:28:39.737Z,70.10
2023-03-26T21:31:14.517Z,70.10
2023-03-26T21:33:44.770Z,70.10
2023-03-26T21:36:14.259Z,70.40
2023-03-26T21:38:44.670Z,70.30
2023-03-26T21:41:25.411Z,70.40
2023-03-26T21:43:56.089Z,70.30
2023-03-26T21:46:24.731Z,70.60
2023-03-26T21:48:55.053Z,70.50
2023-03-26T21:51:23.826Z,70.50
2023-03-26T21:53:54.251Z,70.40
2023-03-26T21:56:36.939Z,70.50
2023-03-26T21:59:11.812Z,70.40
2023-03-26T22:01:48.200Z,70.40
2023-03-26T22:04:25.624Z,70.40
2023-03-26T22:06:58.701Z,70.50
2023-03-26T22:12:02.161Z,70.40
2023-03-26T22:14:30.534Z,70.40
2023-03-26T22:16:58.928Z,70.40
2023-03-26T22:19:30.353Z,70.50
2023-03-26T22:22:00.210Z,70.50
2023-03-26T22:24:28.619Z,70.70
2023-03-26T22:26:57.191Z,70.70
2023-03-26T22:29:25.549Z,70.90
2023-03-26T22:31:53.884Z,71.10
2023-03-26T22:34:23.153Z,71.20
2023-03-26T22:36:53.296Z,70.90
2023-03-26T22:39:21.625Z,71.10
2023-03-26T22:41:49.964Z,71.10
2023-03-26T22:44:20.760Z,71.10
2023-03-26T22:46:51.433Z,71.00
2023-03-26T22:49:20.015Z,71.10
2023-03-26T22:51:48.267Z,71.30
2023-03-26T22:54:18.235Z,71.40
2023-03-26T22:56:47.230Z,71.50
2023-03-26T22:59:15.433Z,71.40
2023-03-26T23:01:44.122Z,71.40
2023-03-26T23:04:13.097Z,71.50
2023-03-26T23:07:00.184Z,71.60
2023-03-26T23:09:29.882Z,71.60
2023-03-26T23:11:58.575Z,71.80
2023-03-26T23:14:28.669Z,71.60
2023-03-26T23:16:57.281Z,71.50
2023-03-26T23:19:25.780Z,71.60
2023-03-26T23:21:54.024Z,71.60
2023-03-26T23:24:22.366Z,71.80
2023-03-26T23:26:52.151Z,71.80
2023-03-26T23:29:20.440Z,71.90
2023-03-26T23:31:48.680Z,71.90
2023-03-26T23:34:18.508Z,71.90
2023-03-26T23:36:47.009Z,72.00
2023-03-26T23:39:15.900Z,71.90
2023-03-26T23:41:44.108Z,71.90
2023-03-26T23:44:14.629Z,71.90
2023-03-26T23:46:44.165Z,72.00
2023-03-26T23:49:13.128Z,72.00
2023-03-26T23:51:42.183Z,72.00
2023-03-26T23:54:11.702Z,72.30
2023-03-26T23:56:40.279Z,72.20
2023-03-26T23:59:08.629Z,72.10
